This is the latest recevied weather packets stored in our database for station/object W0BJ-1. If no packets are shown the sender has not sent any weather packets the latest 10 day(s).
| Time | Temp. | Humidity | Pressure | Rain* | Wind** | Luminosity | Snow |
|---|---|---|---|---|---|---|---|
| 1777924540 | 25° C | 57% | 1003.4 hPa | 0 mm | - | 991 W/m² | - |
| 1777924240 | 25° C | 55% | 1003.4 hPa | 0 mm | - | 287 W/m² | - |
| 1777921538 | 23.89° C | 56% | 1004.7 hPa | 0 mm | - | 993 W/m² | - |
| 1777920347 | 22.78° C | 62% | 1004.7 hPa | 0 mm | - | 932 W/m² | - |
| 1777919741 | 22.78° C | 62% | 1004.6 hPa | 0 mm | - | 357 W/m² | - |
| 1777919459 | 22.78° C | 58% | 1004.3 hPa | 0 mm | - | 378 W/m² | - |
| 1777918554 | 22.78° C | 60% | 1004.8 hPa | 0 mm | - | 445 W/m² | - |
| 1777917692 | 22.22° C | 66% | 1005.2 hPa | 0 mm | - | 355 W/m² | - |
| 1777916440 | 20° C | 72% | 1005.5 hPa | 0 mm | - | 364 W/m² | - |
| 1777916140 | 19.44° C | 71% | 1005.5 hPa | 0 mm | - | 446 W/m² | - |
| 1777915850 | 18.89° C | 70% | 1005.4 hPa | 0 mm | - | 381 W/m² | - |
| 1777915540 | 18.89° C | 69% | 1005.5 hPa | 0 mm | - | 339 W/m² | - |
| 1777914341 | 18.33° C | 68% | 1005.5 hPa | 0 mm | - | 65 W/m² | - |
| 1777914053 | 18.33° C | 69% | 1005.5 hPa | 0 mm | - | 58 W/m² | - |
| 1777913740 | 18.89° C | 69% | 1005.5 hPa | 0 mm | - | 72 W/m² | - |
| 1777913440 | 18.89° C | 70% | 1005.6 hPa | 0 mm | - | 98 W/m² | - |
| 1777910739 | 18.33° C | 69% | 1006.5 hPa | 0 mm | - | 127 W/m² | - |
| 1777908040 | 17.78° C | 71% | 1006.2 hPa | 0 mm | - | 302 W/m² | - |
| 1777907751 | 17.78° C | 73% | 1006.5 hPa | 0 mm | - | 341 W/m² | - |
| 1777905054 | 16.67° C | 73% | 1006.4 hPa | 0 mm | - | 100 W/m² | - |
| 1777904740 | 16.67° C | 73% | 1006.1 hPa | 0 mm | - | 56 W/m² | - |
| 1777902941 | 18.33° C | 67% | 1006.9 hPa | 0 mm | - | 21 W/m² | - |
| 1777899652 | 16.67° C | 72% | 1007.4 hPa | 0 mm | - | 297 W/m² | - |
| 1777899042 | 15.56° C | 75% | 1007.5 hPa | 0 mm | - | 209 W/m² | - |
| 1777897240 | 14.44° C | 75% | 1007.7 hPa | 0 mm | - | 26 W/m² | - |
* Rain latest hour (hover to see other rain measurements)
** Current wind speed in m/s (hover to see current wind gust speed)